Time;durP1;ratioP1;P1;durP2;ratioP2;P2;SDS_P1;SDS_P2;PMS_P1;PMS_P2;Temp;Humidity;BMP_temperature;BMP_pressure;BME280_temperature;BME280_humidity;BME280_pressure;Samples;Min_cycle;Max_cycle;Signal;HPM_P1;HPM_P2
2023/03/18 00:07:30;;;;;;;6.50;2.83;;;11.90;1.00;;;;;;25903683;22;20015;-41
2023/03/18 00:17:31;;;;;;;6.75;3.42;;;11.70;1.00;;;;;;25915543;22;20015;-41
2023/03/18 00:27:33;;;;;;;3.70;2.00;;;11.60;1.00;;;;;;25900088;22;20367;-41
2023/03/18 00:37:35;;;;;;;5.07;2.30;;;11.50;1.00;;;;;;25897320;22;20392;-41
2023/03/18 00:47:37;;;;;;;14.55;4.60;;;11.50;1.00;;;;;;25901003;22;20470;-41
2023/03/18 00:57:38;;;;;;;4.90;2.90;;;11.40;1.00;;;;;;25893465;22;20020;-41
2023/03/18 01:07:40;;;;;;;5.57;3.22;;;11.40;1.00;;;;;;25896052;22;20020;-41
2023/03/18 01:17:41;;;;;;;6.28;3.78;;;11.40;1.00;;;;;;25907059;22;20015;-41
2023/03/18 01:27:43;;;;;;;5.20;3.47;;;11.30;1.00;;;;;;25897299;22;20022;-41
2023/03/18 01:37:45;;;;;;;12.05;3.85;;;11.20;1.00;;;;;;25848206;22;1092360;-41
2023/03/18 01:47:47;;;;;;;10.50;4.57;;;11.10;1.00;;;;;;25912915;22;20018;-42
2023/03/18 01:57:48;;;;;;;7.20;4.80;;;11.10;2.60;;;;;;25899877;22;20031;-41
2023/03/18 02:07:51;;;;;;;11.15;5.05;;;11.10;5.70;;;;;;25905648;22;20385;-40
2023/03/18 02:18:18;;;;;;;9.32;5.93;;;11.10;5.10;;;;;;25908900;22;20026;-41
2023/03/18 02:28:26;;;;;;;10.67;5.67;;;11.10;7.20;;;;;;25906647;22;20019;-41
2023/03/18 02:38:27;;;;;;;12.07;5.05;;;11.10;7.30;;;;;;25896651;22;20521;-43
2023/03/18 02:48:35;;;;;;;8.18;5.40;;;11.10;8.40;;;;;;25909187;22;20033;-43
2023/03/18 02:58:36;;;;;;;9.23;4.30;;;11.20;7.60;;;;;;25877503;22;20038;-41
2023/03/18 03:08:39;;;;;;;9.13;5.90;;;11.20;8.40;;;;;;25905865;22;20020;-41
2023/03/18 03:18:41;;;;;;;9.10;4.90;;;11.20;8.00;;;;;;25901701;22;20325;-41
2023/03/18 03:28:43;;;;;;;13.13;5.75;;;11.30;5.80;;;;;;25900936;22;20008;-41
2023/03/18 03:38:44;;;;;;;9.93;5.15;;;11.20;5.90;;;;;;25880925;22;20357;-41
2023/03/18 03:48:46;;;;;;;9.90;6.03;;;11.20;7.00;;;;;;25898385;22;20012;-41
2023/03/18 03:58:47;;;;;;;11.68;4.10;;;11.30;6.50;;;;;;25903055;22;20022;-42
2023/03/18 04:08:49;;;;;;;14.75;5.22;;;11.30;8.80;;;;;;25903202;22;20015;-42
2023/03/18 04:18:50;;;;;;;6.32;3.55;;;11.40;11.90;;;;;;25901258;22;20011;-42
2023/03/18 04:28:51;;;;;;;8.07;4.90;;;11.40;14.80;;;;;;25904269;22;20031;-41
2023/03/18 04:38:52;;;;;;;12.75;6.03;;;11.40;16.80;;;;;;25903289;22;20576;-41
2023/03/18 04:48:53;;;;;;;8.35;4.68;;;11.30;21.80;;;;;;25903484;22;20121;-41
2023/03/18 04:58:54;;;;;;;6.65;3.83;;;11.30;25.70;;;;;;25902319;22;20038;-42
2023/03/18 05:08:56;;;;;;;9.95;3.78;;;11.20;29.20;;;;;;25895053;22;20007;-42
2023/03/18 05:18:57;;;;;;;7.40;4.05;;;11.20;30.20;;;;;;25900237;22;20019;-41
2023/03/18 05:28:58;;;;;;;7.00;3.58;;;11.10;45.50;;;;;;25902159;22;20333;-42
2023/03/18 05:38:59;;;;;;;6.68;3.45;;;11.00;58.60;;;;;;25896871;22;20026;-42
2023/03/18 05:49:00;;;;;;;7.82;3.53;;;10.90;79.00;;;;;;25896414;22;20440;-42
2023/03/18 05:59:02;;;;;;;6.00;3.90;;;10.90;84.60;;;;;;25870204;22;20020;-42
2023/03/18 06:09:03;;;;;;;8.88;4.78;;;10.90;90.80;;;;;;25894008;22;20030;-42
2023/03/18 06:19:05;;;;;;;8.18;4.43;;;10.90;93.70;;;;;;25907177;22;20011;-42
2023/03/18 06:29:06;;;;;;;7.65;3.95;;;10.80;99.90;;;;;;25901187;22;20370;-42
2023/03/18 06:39:07;;;;;;;8.43;5.07;;;10.80;99.90;;;;;;25904911;22;20530;-41
2023/03/18 06:49:08;;;;;;;10.32;4.97;;;10.70;99.90;;;;;;25909714;22;20016;-42
2023/03/18 06:59:10;;;;;;;10.43;5.40;;;10.60;99.90;;;;;;25898654;22;20026;-42
2023/03/18 07:09:11;;;;;;;9.73;4.70;;;10.60;99.90;;;;;;25904028;22;20039;-42
2023/03/18 07:19:12;;;;;;;9.77;4.75;;;10.60;99.90;;;;;;25903969;22;20024;-42
2023/03/18 07:29:14;;;;;;;10.73;4.78;;;10.80;99.90;;;;;;25904632;22;20353;-42
2023/03/18 07:39:15;;;;;;;6.47;3.88;;;11.00;99.90;;;;;;25901019;22;20219;-42
2023/03/18 07:49:16;;;;;;;24.63;5.32;;;11.30;99.90;;;;;;25902146;22;20020;-42
2023/03/18 07:59:19;;;;;;;7.93;4.80;;;11.60;99.90;;;;;;25906466;22;20027;-42
2023/03/18 08:09:21;;;;;;;9.82;5.65;;;11.80;97.50;;;;;;25904840;22;20016;-40
2023/03/18 08:19:22;;;;;;;12.13;6.07;;;12.00;76.40;;;;;;25917597;22;20020;-41
2023/03/18 08:29:23;;;;;;;11.65;5.15;;;12.20;58.20;;;;;;25913537;22;20011;-40
2023/03/18 08:39:25;;;;;;;10.30;4.63;;;12.50;43.50;;;;;;25905789;22;20098;-40
2023/03/18 08:49:27;;;;;;;8.75;4.50;;;12.90;28.10;;;;;;25914336;22;20532;-41
2023/03/18 08:59:28;;;;;;;7.20;4.45;;;13.30;19.00;;;;;;25914059;22;20091;-41
2023/03/18 09:09:29;;;;;;;7.20;3.67;;;13.30;14.90;;;;;;25914986;22;20008;-41
2023/03/18 09:19:30;;;;;;;7.18;4.15;;;13.50;17.30;;;;;;25911683;22;20349;-40
2023/03/18 09:29:31;;;;;;;9.90;3.38;;;13.80;8.30;;;;;;25907786;22;20016;-40
2023/03/18 09:39:32;;;;;;;7.32;3.75;;;14.50;1.20;;;;;;25903071;22;20641;-41
2023/03/18 09:50:14;;;;;;;5.93;3.50;;;14.50;1.00;;;;;;25908747;22;20095;-40
2023/03/18 10:00:36;;;;;;;6.88;2.63;;;14.70;1.00;;;;;;25839679;22;20442;-40
2023/03/18 10:10:41;;;;;;;5.88;3.03;;;15.00;1.00;;;;;;25913392;22;20027;-40
2023/03/18 10:21:00;;;;;;;3.50;1.85;;;15.10;1.00;;;;;;25920341;22;20088;-40
2023/03/18 10:31:28;;;;;;;3.35;1.88;;;15.30;1.00;;;;;;25919122;22;20592;-40
2023/03/18 10:41:31;;;;;;;4.03;2.00;;;15.20;1.00;;;;;;25921952;22;20381;-41
2023/03/18 10:51:45;;;;;;;5.22;2.13;;;15.30;1.00;;;;;;25911118;22;20024;-41
2023/03/18 11:01:51;;;;;;;4.55;2.15;;;15.10;1.00;;;;;;25908660;22;20019;-41
2023/03/18 11:12:04;;;;;;;5.75;2.10;;;14.90;1.00;;;;;;25913253;22;20018;-40
2023/03/18 11:22:09;;;;;;;6.97;2.88;;;14.70;1.00;;;;;;25878379;22;20066;-41
2023/03/18 11:32:22;;;;;;;8.55;3.38;;;14.40;1.00;;;;;;25905250;22;20121;-41
2023/03/18 11:42:24;;;;;;;4.43;2.95;;;14.40;1.00;;;;;;25915327;22;20028;-40
2023/03/18 11:52:30;;;;;;;4.28;2.53;;;14.00;1.00;;;;;;25910349;22;20142;-41
2023/03/18 12:02:41;;;;;;;4.55;2.08;;;14.10;1.00;;;;;;25922056;22;20111;-40
2023/03/18 12:12:42;;;;;;;3.92;1.80;;;14.50;1.00;;;;;;25916333;22;20401;-40
2023/03/18 12:22:47;;;;;;;4.55;2.08;;;14.90;1.00;;;;;;25908063;22;20018;-42
2023/03/18 12:32:58;;;;;;;4.30;1.75;;;14.70;1.00;;;;;;25876239;22;20542;-40
2023/03/18 12:43:28;;;;;;;5.57;2.85;;;14.40;1.00;;;;;;25897226;22;20499;-40
2023/03/18 12:53:35;;;;;;;5.03;1.77;;;14.20;1.00;;;;;;25883787;22;20060;-42
2023/03/18 13:03:39;;;;;;;2.90;1.43;;;14.30;1.00;;;;;;25893558;22;20011;-40
2023/03/18 13:13:48;;;;;;;3.10;1.33;;;15.10;1.00;;;;;;25889818;22;20824;-41
2023/03/18 13:24:16;;;;;;;2.83;1.30;;;17.50;1.00;;;;;;25903240;22;20518;-40
2023/03/18 13:34:25;;;;;;;2.40;1.43;;;16.90;1.00;;;;;;25899117;22;20032;-40
2023/03/18 13:44:44;;;;;;;2.63;1.05;;;17.20;1.00;;;;;;25893007;22;20078;-41
2023/03/18 13:54:45;;;;;;;2.58;1.17;;;16.20;1.00;;;;;;25901545;22;20853;-40
2023/03/18 14:04:49;;;;;;;3.85;1.63;;;16.40;1.00;;;;;;25909861;22;20015;-40
2023/03/18 14:14:51;;;;;;;1.73;0.70;;;15.80;1.00;;;;;;25902199;22;20380;-40
2023/03/18 14:25:20;;;;;;;1.35;0.65;;;16.00;1.00;;;;;;25899957;22;20015;-40
2023/03/18 14:35:27;;;;;;;2.78;1.00;;;17.70;1.00;;;;;;25906694;22;20122;-40
2023/03/18 14:45:48;;;;;;;2.13;0.77;;;18.10;1.00;;;;;;25915945;22;20032;-40
2023/03/18 14:55:52;;;;;;;1.98;0.60;;;17.90;1.00;;;;;;25919331;22;21378;-40
2023/03/18 15:06:02;;;;;;;1.60;0.50;;;16.90;1.00;;;;;;25923632;22;20106;-42
2023/03/18 15:16:08;;;;;;;6.13;1.27;;;16.80;1.00;;;;;;25918308;22;20114;-42
2023/03/18 15:26:24;;;;;;;1.55;0.80;;;16.70;1.00;;;;;;25916662;22;20509;-42
2023/03/18 15:36:25;;;;;;;5.47;0.85;;;15.90;1.00;;;;;;25903905;22;20397;-41
2023/03/18 15:46:31;;;;;;;2.05;0.80;;;15.70;1.00;;;;;;25899985;22;20004;-40
2023/03/18 15:56:34;;;;;;;3.67;1.25;;;16.10;1.00;;;;;;25912482;22;20532;-40
2023/03/18 16:06:37;;;;;;;1.10;0.50;;;15.90;1.00;;;;;;25919969;22;20015;-40
2023/03/18 16:16:38;;;;;;;1.83;1.10;;;15.70;1.00;;;;;;25917951;22;20019;-40
2023/03/18 16:26:40;;;;;;;0.90;0.32;;;15.50;1.00;;;;;;25918565;22;20495;-40
2023/03/18 16:36:42;;;;;;;1.30;0.63;;;15.40;1.00;;;;;;25914998;22;20026;-40
2023/03/18 16:46:50;;;;;;;2.33;0.50;;;15.30;1.00;;;;;;25918292;22;20091;-40
2023/03/18 16:56:54;;;;;;;2.22;0.88;;;15.20;1.00;;;;;;25885634;22;20538;-42
2023/03/18 17:06:58;;;;;;;1.02;0.57;;;15.00;1.00;;;;;;25916273;22;20039;-39
2023/03/18 17:17:01;;;;;;;8.98;2.60;;;15.00;1.00;;;;;;25914522;22;20087;-42
2023/03/18 17:27:03;;;;;;;8.25;1.67;;;14.90;1.00;;;;;;25914721;22;20012;-42
2023/03/18 17:37:04;;;;;;;0.93;0.43;;;14.70;1.00;;;;;;25910529;22;20164;-42
2023/03/18 17:47:05;;;;;;;1.27;0.60;;;14.60;1.00;;;;;;25911345;22;20190;-41
2023/03/18 17:57:16;;;;;;;2.33;1.35;;;14.60;1.00;;;;;;25915493;22;20310;-40
2023/03/18 18:07:20;;;;;;;2.85;0.95;;;14.60;1.00;;;;;;25914744;22;20400;-40
2023/03/18 18:17:21;;;;;;;5.57;1.70;;;14.50;1.00;;;;;;25908797;22;20142;-40
2023/03/18 18:27:23;;;;;;;2.72;1.20;;;14.40;1.00;;;;;;25911991;22;20008;-41
2023/03/18 18:37:24;;;;;;;2.17;1.33;;;14.50;1.00;;;;;;25917622;22;20034;-40
2023/03/18 18:47:26;;;;;;;3.95;1.95;;;14.40;1.00;;;;;;25918977;22;20022;-41
2023/03/18 18:57:29;;;;;;;5.65;2.80;;;14.40;1.00;;;;;;25922737;22;20760;-40
2023/03/18 19:07:32;;;;;;;1.65;0.60;;;14.50;1.00;;;;;;25926393;22;20091;-40
2023/03/18 19:17:33;;;;;;;1.98;0.82;;;14.40;1.00;;;;;;25925729;22;20091;-39
2023/03/18 19:27:35;;;;;;;1.70;0.70;;;14.40;1.00;;;;;;25922167;22;20537;-42
2023/03/18 19:37:40;;;;;;;12.15;3.65;;;13.90;1.00;;;;;;25924125;22;20027;-40
2023/03/18 19:47:41;;;;;;;2.10;0.90;;;13.60;1.00;;;;;;25919725;22;20422;-40
2023/03/18 19:57:45;;;;;;;3.20;1.30;;;13.10;1.00;;;;;;25920133;22;20098;-39
2023/03/18 20:07:48;;;;;;;3.63;1.90;;;12.20;30.00;;;;;;25920964;22;20565;-40
2023/03/18 20:17:50;;;;;;;4.13;1.98;;;11.90;80.00;;;;;;25922551;22;20012;-40
2023/03/18 20:27:54;;;;;;;2.38;1.10;;;11.60;99.90;;;;;;25923643;22;20079;-40
2023/03/18 20:37:58;;;;;;;1.70;1.27;;;11.60;99.90;;;;;;25920552;22;20046;-40
2023/03/18 20:48:00;;;;;;;6.32;2.92;;;11.60;99.90;;;;;;25923848;22;20414;-40
2023/03/18 20:58:01;;;;;;;1.90;0.75;;;11.60;99.90;;;;;;25918122;22;20086;-40
2023/03/18 21:08:02;;;;;;;2.47;0.90;;;11.60;96.30;;;;;;25921085;22;20545;-40
2023/03/18 21:18:04;;;;;;;1.77;0.73;;;11.60;90.10;;;;;;25919517;22;20289;-41
2023/03/18 21:28:05;;;;;;;1.13;0.45;;;11.60;69.60;;;;;;25915699;22;20106;-41
2023/03/18 21:38:06;;;;;;;4.93;1.40;;;11.50;51.70;;;;;;25909770;22;20098;-40
2023/03/18 21:48:07;;;;;;;0.60;0.30;;;11.50;45.10;;;;;;25890153;22;20071;-41
2023/03/18 21:58:20;;;;;;;0.95;0.40;;;11.50;40.10;;;;;;25920633;22;20487;-40
2023/03/18 22:08:22;;;;;;;1.30;0.70;;;11.50;31.80;;;;;;25916060;22;20090;-41
2023/03/18 22:18:23;;;;;;;1.00;0.22;;;11.60;30.00;;;;;;25924353;22;20501;-41
2023/03/18 22:28:26;;;;;;;0.20;0.10;;;11.60;30.90;;;;;;25929433;22;20335;-40
2023/03/18 22:38:28;;;;;;;1.15;0.50;;;11.60;30.20;;;;;;25915323;22;20449;-41
2023/03/18 22:48:29;;;;;;;1.38;0.50;;;11.50;35.10;;;;;;25924036;22;20091;-40
2023/03/18 22:58:30;;;;;;;0.77;0.45;;;11.50;40.50;;;;;;25924700;22;20091;-41
2023/03/18 23:08:31;;;;;;;2.90;0.93;;;11.40;57.10;;;;;;25912900;22;20235;-42
2023/03/18 23:18:32;;;;;;;0.80;0.40;;;11.30;74.30;;;;;;25908244;22;20026;-41
2023/03/18 23:28:33;;;;;;;1.38;0.60;;;11.20;93.90;;;;;;25926923;22;20091;-41
2023/03/18 23:38:36;;;;;;;1.50;0.50;;;11.20;97.90;;;;;;25915160;22;20051;-42
2023/03/18 23:48:37;;;;;;;1.20;0.52;;;11.20;95.40;;;;;;25917832;22;20099;-42
2023/03/18 23:58:38;;;;;;;2.40;0.80;;;11.20;91.40;;;;;;25918039;22;20086;-41
